Time;durP1;ratioP1;P1;durP2;ratioP2;P2;SDS_P1;SDS_P2;PMS_P1;PMS_P2;Temp;Humidity;BMP_temperature;BMP_pressure;BME280_temperature;BME280_humidity;BME280_pressure;Samples;Min_cycle;Max_cycle;Signal;HPM_P1;HPM_P2
2021/11/08 00:01:59;;;;;;;7.05;2.63;;;10.40;99.90;;;;;;5015184;28;20173;-80
2021/11/08 00:04:25;;;;;;;13.40;3.00;;;10.40;99.90;;;;;;5014793;28;20197;-80
2021/11/08 00:06:51;;;;;;;8.47;3.17;;;10.40;99.90;;;;;;5032396;28;20244;-80
2021/11/08 00:09:18;;;;;;;6.85;2.95;;;10.30;99.90;;;;;;5032355;28;20619;-79
2021/11/08 00:11:44;;;;;;;9.18;3.53;;;10.30;99.90;;;;;;5015084;28;20188;-80
2021/11/08 00:14:13;;;;;;;14.20;4.53;;;10.30;99.90;;;;;;5032526;28;20189;-80
2021/11/08 00:22:07;;;;;;;12.18;4.15;;;10.30;99.90;;;;;;5032720;28;20182;-80
2021/11/08 00:24:37;;;;;;;11.17;3.70;;;10.30;99.90;;;;;;5003539;28;20205;-79
2021/11/08 00:27:03;;;;;;;10.07;3.30;;;10.40;99.90;;;;;;5032175;28;20224;-80
2021/11/08 00:29:30;;;;;;;11.40;4.35;;;10.40;99.90;;;;;;5032070;28;20170;-80
2021/11/08 00:31:56;;;;;;;19.67;4.47;;;10.40;99.90;;;;;;5032347;28;20166;-80
2021/11/08 00:34:22;;;;;;;13.45;3.83;;;10.50;99.90;;;;;;5013962;28;20204;-80
2021/11/08 00:36:50;;;;;;;8.65;3.40;;;10.60;99.90;;;;;;5031440;28;20169;-80
2021/11/08 00:39:18;;;;;;;10.10;3.60;;;10.60;99.90;;;;;;5032123;28;20184;-80
2021/11/08 00:41:44;;;;;;;14.48;5.18;;;10.70;99.90;;;;;;5032311;28;20199;-79
2021/11/08 00:44:10;;;;;;;8.77;3.50;;;10.70;99.90;;;;;;5014138;28;20196;-79
2021/11/08 00:46:37;;;;;;;10.63;3.55;;;10.80;99.90;;;;;;5031346;28;20176;-79
2021/11/08 00:49:04;;;;;;;7.78;3.40;;;10.80;99.90;;;;;;5032187;28;21002;-79
2021/11/08 00:51:34;;;;;;;9.02;3.60;;;10.90;99.90;;;;;;5014071;28;20194;-80
2021/11/08 00:54:00;;;;;;;9.27;3.88;;;10.90;99.90;;;;;;5014276;28;20190;-80
2021/11/08 00:56:27;;;;;;;10.23;2.90;;;10.90;99.90;;;;;;5031391;28;20168;-80
2021/11/08 00:58:53;;;;;;;12.82;3.72;;;11.00;99.90;;;;;;5032250;28;20576;-80
2021/11/08 01:01:20;;;;;;;8.27;3.10;;;11.00;99.90;;;;;;5017812;28;20177;-79
2021/11/08 01:03:47;;;;;;;15.57;3.72;;;11.10;99.90;;;;;;5015022;28;20766;-79
2021/11/08 01:06:16;;;;;;;13.38;3.47;;;11.10;99.90;;;;;;4996870;28;20682;-79
2021/11/08 01:08:42;;;;;;;14.98;4.43;;;11.10;99.90;;;;;;5031960;28;20162;-79
2021/11/08 01:11:11;;;;;;;16.30;3.92;;;11.10;99.90;;;;;;5014068;28;20794;-79
2021/11/08 01:13:39;;;;;;;13.13;4.28;;;11.10;99.90;;;;;;4997148;28;20193;-79
2021/11/08 01:16:04;;;;;;;13.82;4.45;;;11.10;99.90;;;;;;5031202;28;20526;-79
2021/11/08 01:18:30;;;;;;;15.00;4.37;;;11.00;99.90;;;;;;5013519;28;20176;-79
2021/11/08 01:20:56;;;;;;;14.83;4.50;;;10.90;99.90;;;;;;5030535;28;20170;-79
2021/11/08 01:23:27;;;;;;;15.98;4.18;;;10.90;99.90;;;;;;5013349;28;20689;-79
2021/11/08 01:26:15;;;;;;;15.38;4.85;;;10.80;99.90;;;;;;5031168;28;20572;-79
2021/11/08 01:28:47;;;;;;;12.68;5.43;;;10.70;99.90;;;;;;5013718;28;20162;-79
2021/11/08 01:31:14;;;;;;;8.98;3.15;;;10.70;99.90;;;;;;5031025;28;20177;-79
2021/11/08 01:33:46;;;;;;;12.00;3.13;;;10.60;99.90;;;;;;5013337;28;20198;-79
2021/11/08 01:36:14;;;;;;;11.13;3.90;;;10.50;99.90;;;;;;5030996;28;20284;-79
2021/11/08 01:38:49;;;;;;;11.90;3.95;;;10.40;99.90;;;;;;5036412;28;20560;-78
2021/11/08 01:41:19;;;;;;;7.53;4.10;;;10.40;99.90;;;;;;4997606;28;20177;-79
2021/11/08 01:43:48;;;;;;;11.93;4.05;;;10.30;99.90;;;;;;5031123;28;20197;-79
2021/11/08 01:46:15;;;;;;;10.98;3.70;;;10.30;99.90;;;;;;5012993;28;20177;-80
2021/11/08 01:48:41;;;;;;;8.48;3.55;;;10.20;99.90;;;;;;5031156;28;20253;-79
2021/11/08 01:51:08;;;;;;;11.10;3.95;;;10.20;99.90;;;;;;5031036;28;20166;-80
2021/11/08 01:53:34;;;;;;;13.68;3.58;;;10.10;99.90;;;;;;5013206;28;20269;-79
2021/11/08 01:56:01;;;;;;;12.35;3.60;;;10.10;99.90;;;;;;5013123;28;20181;-78
2021/11/08 01:58:30;;;;;;;10.90;4.68;;;10.10;99.90;;;;;;5013519;28;20197;-80
2021/11/08 02:00:57;;;;;;;16.88;3.95;;;10.10;99.90;;;;;;5013547;28;20209;-79
2021/11/08 02:03:23;;;;;;;7.57;2.95;;;10.10;99.90;;;;;;4996087;28;20682;-79
2021/11/08 02:05:48;;;;;;;12.70;3.80;;;10.10;99.90;;;;;;5013061;28;20209;-78
2021/11/08 02:08:15;;;;;;;10.77;3.60;;;10.10;99.90;;;;;;5013398;28;20197;-80
2021/11/08 02:10:42;;;;;;;16.10;5.72;;;10.10;99.90;;;;;;5031296;28;20982;-80
2021/11/08 02:13:08;;;;;;;9.98;3.20;;;10.10;99.90;;;;;;4996669;28;20221;-80
2021/11/08 02:15:39;;;;;;;9.10;3.37;;;10.10;99.90;;;;;;5002561;28;20196;-79
2021/11/08 02:18:08;;;;;;;12.05;4.45;;;10.10;99.90;;;;;;5030299;28;20569;-79
2021/11/08 02:20:35;;;;;;;11.35;4.25;;;10.00;99.90;;;;;;5031314;28;20208;-79
2021/11/08 02:23:05;;;;;;;15.80;4.28;;;10.10;99.90;;;;;;5030536;28;20232;-80
2021/11/08 02:25:33;;;;;;;8.93;4.65;;;10.10;99.90;;;;;;5013300;28;20216;-79
2021/11/08 02:28:01;;;;;;;13.93;3.10;;;10.10;99.90;;;;;;5012434;28;20174;-79
2021/11/08 02:30:30;;;;;;;10.73;3.17;;;10.20;99.90;;;;;;5013323;28;20170;-79
2021/11/08 02:32:57;;;;;;;10.50;3.60;;;10.20;99.90;;;;;;5033016;28;20592;-79
2021/11/08 02:35:24;;;;;;;12.07;3.13;;;10.30;99.90;;;;;;5016697;28;20821;-79
2021/11/08 02:37:50;;;;;;;8.35;3.55;;;10.30;99.90;;;;;;5034125;28;20572;-79
2021/11/08 02:40:22;;;;;;;15.43;4.15;;;10.40;99.90;;;;;;5034335;28;20219;-79
2021/11/08 02:42:50;;;;;;;8.82;3.47;;;10.40;99.90;;;;;;5034291;28;20213;-80
2021/11/08 02:45:18;;;;;;;9.32;3.70;;;10.50;99.90;;;;;;5034511;28;20562;-80
2021/11/08 02:47:45;;;;;;;10.38;3.10;;;10.50;99.90;;;;;;5034039;28;20178;-79
2021/11/08 02:50:12;;;;;;;9.40;2.90;;;10.60;99.90;;;;;;5016899;28;20182;-80
2021/11/08 02:52:38;;;;;;;11.55;3.50;;;10.60;99.90;;;;;;5039417;28;20221;-80
2021/11/08 02:55:05;;;;;;;12.70;3.83;;;10.70;99.90;;;;;;5035186;28;20169;-80
2021/11/08 02:57:35;;;;;;;12.85;3.35;;;10.70;99.90;;;;;;5015847;28;20177;-80
2021/11/08 03:00:02;;;;;;;9.40;3.58;;;10.80;99.90;;;;;;5000197;28;20201;-80
2021/11/08 03:02:28;;;;;;;9.75;3.53;;;10.80;99.90;;;;;;5033535;28;20286;-80
2021/11/08 03:04:55;;;;;;;11.73;3.05;;;10.80;99.90;;;;;;5016414;28;20201;-80
2021/11/08 03:07:23;;;;;;;10.93;3.55;;;10.80;99.90;;;;;;5033381;28;20257;-80
2021/11/08 03:09:56;;;;;;;9.10;2.80;;;10.90;99.90;;;;;;5034136;28;20180;-80
2021/11/08 03:12:26;;;;;;;13.80;3.60;;;10.90;99.90;;;;;;5000078;28;20166;-80
2021/11/08 03:17:37;;;;;;;12.13;4.38;;;11.00;99.90;;;;;;4999151;28;20204;-80
2021/11/08 03:20:05;;;;;;;9.23;3.53;;;11.00;99.90;;;;;;5033922;28;20581;-80
2021/11/08 03:22:32;;;;;;;14.70;3.50;;;11.00;99.90;;;;;;5015889;28;20205;-80
2021/11/08 03:25:06;;;;;;;10.40;3.80;;;11.00;99.90;;;;;;5015980;28;20237;-80
2021/11/08 03:27:50;;;;;;;14.57;5.82;;;11.10;99.90;;;;;;5033373;28;20197;-80
2021/11/08 03:30:20;;;;;;;20.15;4.43;;;11.10;99.90;;;;;;5021463;28;20169;-80
2021/11/08 03:32:51;;;;;;;10.93;3.70;;;11.10;99.90;;;;;;5015501;28;20185;-80
2021/11/08 03:35:23;;;;;;;12.90;3.60;;;11.10;99.90;;;;;;5015941;28;20166;-80
2021/11/08 03:37:50;;;;;;;10.73;4.53;;;11.10;99.90;;;;;;5015370;28;20177;-80
2021/11/08 03:40:30;;;;;;;11.05;3.88;;;11.10;99.90;;;;;;5033381;28;20198;-79
2021/11/08 03:42:56;;;;;;;8.98;3.30;;;11.10;99.90;;;;;;5033252;28;20239;-79
2021/11/08 03:45:24;;;;;;;14.20;3.88;;;11.20;99.90;;;;;;5015216;28;20269;-80
2021/11/08 03:47:51;;;;;;;14.25;4.65;;;11.10;99.90;;;;;;5032678;28;20546;-80
2021/11/08 03:50:17;;;;;;;12.07;3.85;;;11.20;99.90;;;;;;5015433;28;20189;-79
2021/11/08 03:52:43;;;;;;;8.55;3.38;;;11.20;99.90;;;;;;5015175;28;20279;-79
2021/11/08 03:55:11;;;;;;;14.13;3.53;;;11.20;99.90;;;;;;5034072;28;20169;-79
2021/11/08 03:57:38;;;;;;;12.80;3.90;;;11.20;99.90;;;;;;5015728;28;20190;-79
2021/11/08 04:00:11;;;;;;;12.85;3.50;;;11.30;99.90;;;;;;5015949;28;20180;-79
2021/11/08 04:02:38;;;;;;;16.27;3.75;;;11.30;99.90;;;;;;5015451;28;20201;-79
2021/11/08 04:05:08;;;;;;;15.52;4.47;;;11.30;99.90;;;;;;5033188;28;20577;-79
2021/11/08 04:07:35;;;;;;;11.70;4.30;;;11.30;99.90;;;;;;5037609;28;20165;-80
2021/11/08 04:10:01;;;;;;;10.50;3.50;;;11.30;99.90;;;;;;5033238;28;20166;-80
2021/11/08 04:12:28;;;;;;;10.23;4.40;;;11.30;99.90;;;;;;5014911;28;20181;-80
2021/11/08 04:14:54;;;;;;;11.40;3.08;;;11.40;99.90;;;;;;5015057;28;20355;-80
2021/11/08 04:17:24;;;;;;;15.15;4.95;;;11.40;99.90;;;;;;5014568;28;20181;-80
2021/11/08 04:19:50;;;;;;;15.35;4.20;;;11.40;99.90;;;;;;5031822;28;20252;-80
2021/11/08 04:22:16;;;;;;;9.27;3.27;;;11.40;99.90;;;;;;5032472;28;20308;-80
2021/11/08 04:24:42;;;;;;;13.15;4.10;;;11.40;99.90;;;;;;5013801;28;20197;-80
2021/11/08 04:27:09;;;;;;;10.93;3.80;;;11.40;99.90;;;;;;5031716;28;20598;-80
2021/11/08 04:29:35;;;;;;;13.93;4.28;;;11.40;99.90;;;;;;5014457;28;20528;-80
2021/11/08 04:32:01;;;;;;;9.97;3.40;;;11.40;99.90;;;;;;5032639;28;20166;-80
2021/11/08 04:34:40;;;;;;;12.50;4.00;;;11.40;99.90;;;;;;5031906;28;20597;-79
2021/11/08 04:39:59;;;;;;;8.63;3.25;;;11.40;99.90;;;;;;5032822;28;20177;-80
2021/11/08 04:42:33;;;;;;;13.65;4.20;;;11.40;99.90;;;;;;5032642;28;20169;-80
2021/11/08 04:50:15;;;;;;;12.57;3.45;;;11.40;99.90;;;;;;5032408;28;21001;-79
2021/11/08 04:55:25;;;;;;;14.02;4.40;;;11.40;99.90;;;;;;5032240;28;20200;-79
2021/11/08 05:22:27;;;;;;;9.77;3.17;;;11.40;99.90;;;;;;5019070;28;20181;-79
2021/11/08 05:30:12;;;;;;;14.40;4.03;;;11.40;99.90;;;;;;5023545;23;20663;-73
2021/11/08 05:32:45;;;;;;;13.20;5.07;;;11.40;99.90;;;;;;5026186;28;20188;-73
2021/11/08 05:35:13;;;;;;;7.30;3.03;;;11.50;99.90;;;;;;5026645;28;20276;-73
2021/11/08 05:37:42;;;;;;;7.72;2.97;;;11.50;99.90;;;;;;5013351;28;20212;-73
2021/11/08 05:40:12;;;;;;;10.63;3.60;;;11.50;99.90;;;;;;5023024;28;20193;-73
2021/11/08 05:42:38;;;;;;;12.15;3.53;;;11.50;99.90;;;;;;4996842;28;20174;-74
2021/11/08 05:45:07;;;;;;;13.63;4.60;;;11.50;99.90;;;;;;5010743;28;20608;-73
2021/11/08 05:47:32;;;;;;;17.40;4.30;;;11.50;99.90;;;;;;4988629;28;20586;-74
2021/11/08 05:49:59;;;;;;;11.20;4.03;;;11.50;99.90;;;;;;4997118;28;20280;-74
2021/11/08 05:52:25;;;;;;;14.13;4.25;;;11.50;99.90;;;;;;5011508;28;20166;-73
2021/11/08 05:54:51;;;;;;;7.47;2.93;;;11.50;99.90;;;;;;5023714;28;20216;-73
2021/11/08 06:49:29;;;;;;;13.10;4.05;;;11.70;99.90;;;;;;5034226;28;20198;-73
2021/11/08 06:51:56;;;;;;;14.25;5.30;;;11.70;99.90;;;;;;4999994;28;20170;-73
2021/11/08 06:54:25;;;;;;;11.25;4.35;;;11.70;99.90;;;;;;5033555;28;20224;-72
2021/11/08 06:56:59;;;;;;;12.63;4.22;;;11.70;99.90;;;;;;4999405;28;20172;-73
2021/11/08 06:59:25;;;;;;;17.02;4.68;;;11.70;99.90;;;;;;5016317;28;20247;-73
2021/11/08 07:01:55;;;;;;;9.07;4.00;;;11.70;99.90;;;;;;5032166;28;20568;-74
2021/11/08 07:04:22;;;;;;;14.63;4.40;;;11.80;99.90;;;;;;5015777;28;20198;-74
2021/11/08 07:06:48;;;;;;;13.52;4.63;;;11.80;99.90;;;;;;5015439;28;20170;-74
2021/11/08 07:09:15;;;;;;;19.48;4.50;;;11.80;99.90;;;;;;5014976;28;20208;-75
2021/11/08 07:11:41;;;;;;;15.02;4.35;;;11.80;99.90;;;;;;5015369;28;20227;-75
2021/11/08 07:14:08;;;;;;;11.82;4.00;;;11.80;99.90;;;;;;5015070;28;20201;-75
2021/11/08 07:16:35;;;;;;;10.20;3.72;;;11.80;99.90;;;;;;5015323;28;20285;-76
2021/11/08 07:19:01;;;;;;;17.92;4.28;;;11.90;99.90;;;;;;4997742;28;20288;-76
2021/11/08 07:21:27;;;;;;;18.63;5.50;;;11.90;99.90;;;;;;5015495;28;20540;-75
2021/11/08 07:23:53;;;;;;;11.80;4.07;;;11.90;99.90;;;;;;5009366;28;20198;-75
2021/11/08 07:26:19;;;;;;;14.32;4.05;;;11.90;99.90;;;;;;5011309;28;20581;-74
2021/11/08 07:28:44;;;;;;;10.53;3.90;;;11.90;99.90;;;;;;4998721;28;20267;-75
2021/11/08 07:31:10;;;;;;;11.30;4.53;;;12.00;99.90;;;;;;5033046;28;20170;-76
2021/11/08 07:33:37;;;;;;;11.23;4.97;;;12.00;99.90;;;;;;4998760;28;20174;-74
2021/11/08 07:36:04;;;;;;;13.27;4.60;;;12.00;99.90;;;;;;5014653;28;20182;-75
2021/11/08 07:38:31;;;;;;;9.98;5.07;;;12.00;99.90;;;;;;5032260;28;20189;-74
2021/11/08 07:40:58;;;;;;;10.02;4.43;;;12.00;99.90;;;;;;5032811;28;20181;-74
2021/11/08 07:43:24;;;;;;;10.73;3.97;;;12.10;99.90;;;;;;5032858;28;20647;-74
2021/11/08 07:45:50;;;;;;;14.57;5.27;;;12.10;99.90;;;;;;5032423;28;20178;-75
2021/11/08 07:48:16;;;;;;;14.30;5.40;;;12.10;99.90;;;;;;5015481;28;20564;-75
2021/11/08 07:50:41;;;;;;;13.20;4.20;;;12.20;99.90;;;;;;5015002;28;20921;-74
2021/11/08 07:53:08;;;;;;;8.97;4.53;;;12.20;99.90;;;;;;5032289;28;20604;-75
2021/11/08 07:55:35;;;;;;;11.45;5.40;;;12.20;99.90;;;;;;4998682;28;20186;-74
2021/11/08 07:58:04;;;;;;;15.75;5.32;;;12.20;99.90;;;;;;5032290;28;20564;-74
2021/11/08 08:00:30;;;;;;;11.13;4.25;;;12.20;99.90;;;;;;5015162;28;20554;-74
2021/11/08 08:02:56;;;;;;;12.50;4.00;;;12.30;99.90;;;;;;5031727;28;20261;-74
2021/11/08 08:05:22;;;;;;;10.77;4.47;;;12.30;99.90;;;;;;5032198;28;20615;-74
2021/11/08 08:07:48;;;;;;;11.85;4.47;;;12.30;99.90;;;;;;5031415;28;20196;-74
2021/11/08 08:10:14;;;;;;;17.13;5.97;;;12.30;99.90;;;;;;5012947;28;20221;-74
2021/11/08 08:12:40;;;;;;;17.30;5.93;;;12.30;99.90;;;;;;5023650;28;20169;-74
2021/11/08 08:15:06;;;;;;;13.30;6.00;;;12.30;99.90;;;;;;5031159;28;20178;-74
2021/11/08 08:17:32;;;;;;;7.88;4.10;;;12.30;99.90;;;;;;5011594;28;20497;-73
2021/11/08 08:19:57;;;;;;;10.63;5.83;;;12.30;99.90;;;;;;5025741;28;20205;-74
2021/11/08 08:22:24;;;;;;;14.40;5.13;;;12.30;99.90;;;;;;5012923;28;20182;-76
2021/11/08 08:24:50;;;;;;;11.25;4.70;;;12.30;99.90;;;;;;5024039;28;20201;-76
2021/11/08 08:27:16;;;;;;;15.35;4.90;;;12.40;99.90;;;;;;5014010;28;20177;-76
2021/11/08 08:29:42;;;;;;;10.43;4.50;;;12.40;99.90;;;;;;5013832;28;20197;-76
2021/11/08 08:32:09;;;;;;;12.93;6.57;;;12.50;99.90;;;;;;5032017;28;20595;-76
2021/11/08 08:34:35;;;;;;;15.68;5.13;;;12.50;99.90;;;;;;5033651;28;20184;-76
2021/11/08 08:37:01;;;;;;;15.23;5.10;;;12.50;99.90;;;;;;5031717;28;20166;-76
2021/11/08 08:39:26;;;;;;;12.20;5.47;;;12.60;99.90;;;;;;5031566;28;21159;-76
2021/11/08 08:41:53;;;;;;;14.70;4.97;;;12.60;99.90;;;;;;5014158;28;20577;-76
2021/11/08 08:44:18;;;;;;;15.88;4.47;;;12.60;99.90;;;;;;5031509;28;20529;-76
2021/11/08 08:46:46;;;;;;;16.10;5.27;;;12.70;99.90;;;;;;5013676;28;20181;-76
2021/11/08 08:49:17;;;;;;;14.50;5.15;;;12.70;99.90;;;;;;5013673;28;20190;-75
2021/11/08 08:51:43;;;;;;;10.65;5.05;;;12.70;99.90;;;;;;5031561;28;20166;-76
2021/11/08 08:54:11;;;;;;;15.40;5.18;;;12.80;99.90;;;;;;5031623;28;20173;-76
2021/11/08 08:56:37;;;;;;;14.23;6.22;;;12.80;99.90;;;;;;5013598;28;20537;-75
2021/11/08 08:59:03;;;;;;;12.32;4.70;;;12.80;99.90;;;;;;5031839;28;20200;-75
2021/11/08 09:01:29;;;;;;;12.00;5.40;;;12.90;99.90;;;;;;5031285;28;20630;-76
2021/11/08 09:03:56;;;;;;;13.50;5.80;;;12.90;99.90;;;;;;5013409;28;20201;-75
2021/11/08 09:06:23;;;;;;;15.50;5.60;;;12.90;99.90;;;;;;5030410;28;20604;-76
2021/11/08 09:08:50;;;;;;;16.30;5.23;;;13.00;99.90;;;;;;5014021;28;20946;-76
2021/11/08 09:11:17;;;;;;;13.43;5.50;;;13.00;99.90;;;;;;5031540;28;20560;-77
2021/11/08 09:13:43;;;;;;;15.77;5.88;;;13.10;99.90;;;;;;5013645;28;20568;-76
2021/11/08 09:16:12;;;;;;;19.73;5.77;;;13.20;99.90;;;;;;5031006;28;20173;-76
2021/11/08 09:18:48;;;;;;;15.40;5.27;;;13.20;99.90;;;;;;5031592;28;20603;-75
2021/11/08 09:21:15;;;;;;;17.60;4.93;;;13.30;99.90;;;;;;5013282;28;20572;-76
2021/11/08 09:23:42;;;;;;;13.32;4.88;;;13.30;99.90;;;;;;5021002;28;20675;-76
2021/11/08 09:26:09;;;;;;;13.23;5.37;;;13.40;99.90;;;;;;5031042;28;20186;-76
2021/11/08 09:28:35;;;;;;;13.70;4.90;;;13.40;99.90;;;;;;5013432;28;20640;-75
2021/11/08 09:31:01;;;;;;;13.13;4.57;;;13.60;99.90;;;;;;5004492;28;21018;-76
2021/11/08 09:33:27;;;;;;;9.57;4.72;;;13.60;99.90;;;;;;5010927;28;20170;-76
2021/11/08 09:35:59;;;;;;;9.73;3.87;;;13.70;99.90;;;;;;5011106;28;20171;-76
2021/11/08 09:38:25;;;;;;;12.17;4.67;;;13.80;99.90;;;;;;5011374;28;20919;-75
2021/11/08 09:40:51;;;;;;;13.10;4.93;;;13.90;99.90;;;;;;5030481;28;20572;-76
2021/11/08 09:43:22;;;;;;;12.20;4.60;;;13.90;99.90;;;;;;5030494;28;20165;-75
2021/11/08 09:45:48;;;;;;;17.60;4.70;;;14.00;99.90;;;;;;5030633;28;20679;-74
2021/11/08 09:48:14;;;;;;;16.03;5.17;;;14.10;99.90;;;;;;5030940;28;21164;-75
2021/11/08 09:50:43;;;;;;;18.63;4.90;;;14.20;99.90;;;;;;5030597;28;20519;-74
2021/11/08 09:53:10;;;;;;;15.00;5.00;;;14.20;99.90;;;;;;5030641;28;20568;-75
2021/11/08 09:55:35;;;;;;;13.40;4.17;;;14.30;99.90;;;;;;5012269;28;20885;-75
2021/11/08 09:58:04;;;;;;;15.43;5.13;;;14.40;99.90;;;;;;5010746;28;20557;-75
2021/11/08 10:00:36;;;;;;;16.07;4.67;;;14.50;99.90;;;;;;5010715;28;21040;-75
2021/11/08 10:03:13;;;;;;;15.80;5.83;;;14.60;99.90;;;;;;5010744;28;20568;-75
2021/11/08 10:05:42;;;;;;;13.77;4.20;;;14.70;99.90;;;;;;5010908;28;20654;-76
2021/11/08 10:08:09;;;;;;;9.93;3.80;;;14.80;99.90;;;;;;5011039;28;20565;-76
2021/11/08 10:10:35;;;;;;;11.10;3.97;;;14.90;99.90;;;;;;4993312;28;20630;-76
2021/11/08 10:13:09;;;;;;;16.53;4.87;;;15.10;99.90;;;;;;5010677;28;20549;-76
2021/11/08 10:15:36;;;;;;;18.20;5.27;;;15.20;99.90;;;;;;5011141;28;20577;-76
2021/11/08 10:18:05;;;;;;;14.57;4.90;;;15.30;99.90;;;;;;4992285;28;21140;-77
2021/11/08 10:20:41;;;;;;;9.57;4.50;;;15.40;99.90;;;;;;4993457;28;20691;-76
2021/11/08 10:23:09;;;;;;;11.90;4.70;;;15.40;99.90;;;;;;5010806;28;20668;-76
2021/11/08 10:25:38;;;;;;;9.50;3.67;;;15.50;99.90;;;;;;5011239;28;20623;-76
2021/11/08 10:28:11;;;;;;;12.57;4.77;;;15.60;99.90;;;;;;5010222;28;20931;-76
2021/11/08 10:30:39;;;;;;;14.57;4.40;;;15.70;99.90;;;;;;5001568;28;20584;-76
2021/11/08 10:33:16;;;;;;;11.97;4.60;;;15.70;99.90;;;;;;5030723;28;20561;-76
2021/11/08 10:35:48;;;;;;;13.73;5.33;;;15.80;99.90;;;;;;5030537;28;20641;-76
2021/11/08 10:38:32;;;;;;;10.43;4.67;;;15.90;99.90;;;;;;5012634;28;20644;-76
2021/11/08 10:41:33;;;;;;;11.17;3.87;;;16.00;99.90;;;;;;5012739;28;20571;-75
2021/11/08 10:44:04;;;;;;;13.23;4.43;;;16.00;99.90;;;;;;5030469;28;20612;-76
2021/11/08 10:46:35;;;;;;;9.37;4.00;;;16.10;99.90;;;;;;5029599;28;20622;-75
2021/11/08 10:49:12;;;;;;;13.07;3.70;;;16.10;99.90;;;;;;5030749;28;21144;-75
2021/11/08 10:51:40;;;;;;;10.30;3.93;;;16.20;99.90;;;;;;5013028;28;20587;-75
2021/11/08 10:54:09;;;;;;;11.97;5.00;;;16.20;99.90;;;;;;5033226;28;20580;-76
2021/11/08 10:56:47;;;;;;;12.50;4.23;;;16.30;99.90;;;;;;4999451;28;20604;-75
2021/11/08 10:59:21;;;;;;;12.17;4.07;;;16.30;99.90;;;;;;5000195;28;20960;-75
2021/11/08 11:01:55;;;;;;;11.77;4.43;;;16.30;99.90;;;;;;5016096;28;20580;-76
2021/11/08 11:04:30;;;;;;;12.03;4.30;;;16.30;99.90;;;;;;5015889;28;20635;-76
2021/11/08 11:06:56;;;;;;;11.90;4.93;;;16.30;99.90;;;;;;5033586;28;20599;-76
2021/11/08 11:09:27;;;;;;;14.37;4.53;;;16.30;99.90;;;;;;5015799;28;20694;-76
2021/11/08 11:12:11;;;;;;;10.23;4.30;;;16.40;99.90;;;;;;5016256;28;20586;-76
2021/11/08 11:14:47;;;;;;;11.90;4.20;;;16.40;99.90;;;;;;5014932;28;20591;-76
2021/11/08 11:17:26;;;;;;;14.53;5.40;;;16.40;99.90;;;;;;5032958;28;20666;-75
2021/11/08 11:20:04;;;;;;;16.63;6.10;;;16.50;99.90;;;;;;5014878;28;20673;-76
2021/11/08 11:22:31;;;;;;;9.10;4.80;;;16.50;99.90;;;;;;5014841;28;20595;-75
2021/11/08 11:24:57;;;;;;;22.70;7.30;;;16.50;99.90;;;;;;5015353;28;20631;-75
2021/11/08 11:27:26;;;;;;;14.30;5.07;;;16.60;99.90;;;;;;5032754;28;20911;-75
2021/11/08 11:30:06;;;;;;;15.33;5.43;;;16.60;99.90;;;;;;5028977;28;20216;-76
2021/11/08 11:32:32;;;;;;;14.40;4.90;;;16.60;99.90;;;;;;5002556;28;20581;-75
2021/11/08 11:34:58;;;;;;;16.40;3.50;;;16.60;99.90;;;;;;5019130;28;20942;-75
2021/11/08 11:37:26;;;;;;;12.30;3.70;;;16.60;99.90;;;;;;5021983;23;20588;-84
2021/11/08 11:40:12;;;;;;;11.93;4.40;;;16.70;99.90;;;;;;5052301;28;20558;-84
2021/11/08 11:42:50;;;;;;;11.23;3.87;;;16.80;99.90;;;;;;5026559;28;20906;-84
2021/11/08 11:45:17;;;;;;;10.03;3.63;;;16.80;99.90;;;;;;5052772;28;20966;-84
2021/11/08 11:47:44;;;;;;;8.23;3.27;;;16.90;99.90;;;;;;5047294;28;20612;-84
2021/11/08 11:50:11;;;;;;;11.97;3.20;;;16.90;99.90;;;;;;5015371;28;20660;-84
2021/11/08 11:52:42;;;;;;;15.80;4.87;;;17.00;99.90;;;;;;5032625;28;20659;-84
2021/11/08 11:55:09;;;;;;;13.93;4.70;;;17.00;99.90;;;;;;4999227;28;20572;-84
2021/11/08 11:57:35;;;;;;;14.63;5.03;;;17.00;99.90;;;;;;5014256;28;20989;-84
2021/11/08 12:00:02;;;;;;;16.33;5.03;;;17.00;99.90;;;;;;5036556;28;20655;-83
2021/11/08 12:02:37;;;;;;;10.00;3.23;;;17.00;99.90;;;;;;5030236;28;20173;-82
2021/11/08 12:05:04;;;;;;;17.23;4.00;;;17.10;99.90;;;;;;5031856;28;20620;-84
2021/11/08 12:07:31;;;;;;;13.60;4.47;;;17.10;99.90;;;;;;5031793;28;20597;-84
2021/11/08 12:10:04;;;;;;;8.13;2.83;;;17.10;99.90;;;;;;5029297;28;20597;-84
2021/11/08 12:12:30;;;;;;;12.87;4.90;;;17.00;99.90;;;;;;5023628;28;20584;-84
2021/11/08 12:15:08;;;;;;;19.67;7.80;;;17.00;99.90;;;;;;5014096;28;20584;-83
2021/11/08 12:17:47;;;;;;;15.67;7.03;;;16.90;99.90;;;;;;5013438;28;20610;-83
2021/11/08 12:20:17;;;;;;;11.03;6.07;;;16.80;99.90;;;;;;5030825;28;21112;-84
2021/11/08 12:22:44;;;;;;;12.60;5.60;;;16.70;99.90;;;;;;5014226;28;20588;-85
2021/11/08 12:25:14;;;;;;;11.10;3.53;;;16.60;99.90;;;;;;5031860;28;20671;-84
2021/11/08 12:27:50;;;;;;;12.50;5.60;;;16.50;99.90;;;;;;5015511;28;20607;-83
2021/11/08 12:30:25;;;;;;;13.23;5.33;;;16.40;99.90;;;;;;5026821;28;21244;-82
2021/11/08 12:32:58;;;;;;;12.20;5.50;;;16.30;99.90;;;;;;5012263;28;20674;-82
2021/11/08 12:35:36;;;;;;;14.43;4.37;;;16.30;99.90;;;;;;5023655;28;20584;-83
2021/11/08 12:38:21;;;;;;;9.73;3.67;;;16.20;99.90;;;;;;5033464;28;21230;-85
2021/11/08 12:40:48;;;;;;;8.83;3.60;;;16.10;99.90;;;;;;5032056;28;20576;-85
2021/11/08 12:43:28;;;;;;;10.00;4.00;;;16.00;99.90;;;;;;5013047;28;20585;-85
2021/11/08 12:45:54;;;;;;;11.50;3.80;;;15.90;99.90;;;;;;5031372;28;20599;-84
2021/11/08 12:48:20;;;;;;;13.70;4.40;;;15.80;99.90;;;;;;5013106;28;20620;-84
2021/11/08 12:50:59;;;;;;;14.77;4.10;;;15.80;99.90;;;;;;5030305;28;20224;-84
2021/11/08 12:53:26;;;;;;;11.50;4.40;;;15.60;99.90;;;;;;4996734;28;20596;-84
2021/11/08 12:55:54;;;;;;;13.37;3.50;;;15.60;99.90;;;;;;5008962;28;20581;-85
2021/11/08 12:58:43;;;;;;;10.67;3.90;;;15.50;99.90;;;;;;5027115;28;20604;-84
2021/11/08 13:01:11;;;;;;;7.50;3.87;;;15.40;99.90;;;;;;5030196;28;20628;-84
2021/11/08 13:03:40;;;;;;;10.33;3.63;;;15.40;99.90;;;;;;5030704;28;20972;-85
2021/11/08 13:06:08;;;;;;;9.10;3.50;;;15.40;99.90;;;;;;5029968;28;20579;-84
2021/11/08 13:08:34;;;;;;;9.33;2.70;;;15.30;99.90;;;;;;5012907;28;20652;-84
2021/11/08 13:11:09;;;;;;;8.93;3.33;;;15.30;99.90;;;;;;5013322;28;20616;-85
2021/11/08 13:13:37;;;;;;;12.50;3.80;;;15.30;99.90;;;;;;5011982;28;20672;-85
2021/11/08 13:16:07;;;;;;;7.57;2.60;;;15.30;99.90;;;;;;5012249;28;20573;-84
2021/11/08 13:18:43;;;;;;;8.33;2.80;;;15.30;99.90;;;;;;4993342;28;20605;-84
2021/11/08 13:21:11;;;;;;;8.70;2.73;;;15.30;99.90;;;;;;4993683;28;20604;-84
2021/11/08 13:23:40;;;;;;;14.50;3.10;;;15.30;99.90;;;;;;4993388;28;20660;-85
2021/11/08 13:26:07;;;;;;;13.93;4.03;;;15.30;99.90;;;;;;4993036;28;20639;-84
2021/11/08 13:28:36;;;;;;;8.87;3.23;;;15.30;99.90;;;;;;5012019;28;20601;-85
2021/11/08 13:31:11;;;;;;;10.90;3.00;;;15.30;99.90;;;;;;4988918;28;20597;-85
2021/11/08 13:33:41;;;;;;;10.30;4.03;;;15.30;99.90;;;;;;5029569;28;20576;-85
2021/11/08 13:36:08;;;;;;;7.83;2.60;;;15.40;99.90;;;;;;5032061;28;20577;-84
2021/11/08 13:38:38;;;;;;;12.97;5.20;;;15.40;99.90;;;;;;5032028;28;20651;-83
2021/11/08 13:41:19;;;;;;;13.57;4.43;;;15.40;99.90;;;;;;5029992;28;20940;-82
2021/11/08 13:43:55;;;;;;;11.33;2.80;;;15.40;99.90;;;;;;5036598;28;20639;-82
2021/11/08 13:46:35;;;;;;;9.77;3.03;;;15.40;99.90;;;;;;5035988;28;20574;-81
2021/11/08 13:49:08;;;;;;;8.10;2.60;;;15.40;99.90;;;;;;5034929;28;20951;-84
2021/11/08 13:51:40;;;;;;;6.07;2.30;;;15.40;99.90;;;;;;5015820;28;20577;-83
2021/11/08 13:54:17;;;;;;;8.60;2.80;;;15.40;99.90;;;;;;5015577;28;20596;-84
2021/11/08 13:56:49;;;;;;;9.40;1.77;;;15.30;99.90;;;;;;4996921;28;20619;-84
2021/11/08 13:59:28;;;;;;;7.37;2.00;;;15.30;99.90;;;;;;5030455;28;20596;-84
2021/11/08 14:02:00;;;;;;;8.03;2.50;;;15.30;99.90;;;;;;5030897;28;20579;-84
2021/11/08 14:04:38;;;;;;;10.20;2.37;;;15.30;99.90;;;;;;5012270;28;20726;-84
2021/11/08 14:07:06;;;;;;;9.43;2.77;;;15.20;99.90;;;;;;5030515;28;21189;-84
2021/11/08 14:09:34;;;;;;;13.67;2.90;;;15.20;99.90;;;;;;5024837;28;20588;-84
2021/11/08 14:12:05;;;;;;;6.10;2.10;;;15.20;99.90;;;;;;4994556;28;20605;-84
2021/11/08 14:14:38;;;;;;;9.93;2.30;;;15.10;99.90;;;;;;4993985;28;20577;-83
2021/11/08 14:17:17;;;;;;;14.17;2.70;;;15.10;99.90;;;;;;4978690;28;20585;-85
2021/11/08 14:19:45;;;;;;;8.40;2.63;;;15.10;99.90;;;;;;5011030;28;20915;-84
2021/11/08 14:22:11;;;;;;;9.33;2.57;;;15.10;99.90;;;;;;5011491;28;21321;-84
2021/11/08 14:24:40;;;;;;;9.13;2.43;;;15.00;99.90;;;;;;5011429;28;20613;-84
2021/11/08 14:27:15;;;;;;;7.87;2.20;;;15.00;99.90;;;;;;5020808;28;20664;-84
2021/11/08 14:29:42;;;;;;;9.80;2.83;;;15.00;99.90;;;;;;5016110;28;20888;-84